Mercury — 3FFC7 — position and weather

sailwx.info

Track history (hours):
 
Tides and Currents Weather Stations Pressure Air Temp Water Temp Dewpoint Dewpoint Depression Visibility Wind Speed Wind Dir Waves Ship Positions

Mercury

Operator: Royal Caribbean Cruises Ltd

Last reported at 2018-Aug-15 10:49 UTC. Time now 2018-Aug-15 12:36 UTC.
Position N 31°05' E 122°31'.

Length 199 m; draft 8.8 m.

Type: Cargo ship. MMSI: 371862000.

Date/timePositionNaut miles runAvg speedWind from/ knotsBaromVisibWave heightAir tempDewpointWater temp
2018-Aug-15 10:49N 31°05' E 122°31'410.5
2018-Aug-15 10:28N 31°06' E 122°26'610.7
2018-Aug-15 09:52N 31°06' E 122°19'614.4
2018-Aug-15 09:27N 31°09' E 122°13'715.0
2018-Aug-15 09:00N 31°13' E 122°07'713.8
2018-Aug-15 08:30N 31°15' E 121°59'712.3
2018-Aug-15 07:58N 31°16' E 121°51'612.5
2018-Aug-15 07:30N 31°18' E 121°45'4 0.3
2018-Aug-14 18:26N 31°20' E 121°41'4 8.6
2018-Aug-14 18:00N 31°19' E 121°45'511.0
2018-Aug-14 17:30N 31°16' E 121°51'510.9
2018-Aug-14 17:00N 31°15' E 121°57'612.7
2018-Aug-14 16:30N 31°14' E 122°04'610.1
2018-Aug-14 15:56N 31°11' E 122°10'410.4
2018-Aug-14 15:30N 31°09' E 122°14'611.5
2018-Aug-14 14:58N 31°06' E 122°21'510.8
2018-Aug-14 14:28N 31°07' E 122°27'5 7.0
2018-Aug-14 13:41N 31°07' E 122°34'1 4.7
2018-Aug-14 13:29N 31°07' E 122°35'  
2018-Aug-11 04:10N 31°18' E 124°01'4014.1
2018-Aug-11 01:19N 31°13' E 123°14'17 1.9
2018-Aug-10 16:02N 31°12' E 122°54'0 4.8
2018-Aug-10 16:00N 31°12' E 122°54'0 0.7
2018-Aug-10 15:28N 31°11' E 122°54'1413.1
2018-Aug-10 14:25N 31°24' E 123°01'613.1
2018-Aug-10 14:00N 31°28' E 123°05'44112.5
2018-Aug-09 02:49N 38°34' E 120°47'2312.2
2018-Aug-09 00:57N 38°37' E 120°18'712.4
2018-Aug-09 00:22N 38°37' E 120°09'612.8
2018-Aug-08 23:56N 38°38' E 120°01'913.3
2018-Aug-08 23:15N 38°39' E 119°50'313.5
2018-Aug-08 23:00N 38°39' E 119°46'713.8
2018-Aug-08 22:30N 38°40' E 119°37'714.1
2018-Aug-08 21:59N 38°41' E 119°28'714.1
2018-Aug-08 21:30N 38°42' E 119°19'814.6
2018-Aug-08 20:56N 38°44' E 119°09'614.9
2018-Aug-08 20:30N 38°45' E 119°01'815.1
2018-Aug-08 20:00N 38°46' E 118°51'815.1
2018-Aug-08 19:29N 38°47' E 118°41'715.1
2018-Aug-08 19:00N 38°48' E 118°32'815.3
2018-Aug-08 18:30N 38°49' E 118°22'815.0
2018-Aug-08 18:00N 38°51' E 118°13'56 2.3
2018-Aug-07 18:00N 38°45' E 119°23'10 9.6
2018-Aug-07 16:55N 38°43' E 119°37'2410.8
2018-Aug-07 14:42N 38°39' E 120°07'211.9
2018-Aug-07 14:30N 38°39' E 120°10'6911.3
2018-Aug-07 08:27N 38°23' E 121°35'511.7
2018-Aug-07 08:00N 38°21' E 121°42'611.6
2018-Aug-07 07:30N 38°20' E 121°49'611.8
2018-Aug-07 06:59N 38°18' E 121°56'611.8
2018-Aug-07 06:30N 38°16' E 122°03'611.9
2018-Aug-07 06:00N 38°14' E 122°10'611.9
2018-Aug-07 05:28N 38°13' E 122°18'611.9
2018-Aug-07 04:57N 38°11' E 122°25'4411.7
2018-Aug-07 01:09N 37°46' E 123°12'0 2.7
2018-Aug-07 00:59N 37°46' E 123°12'2010.9
2018-Aug-06 23:06N 37°26' E 123°21'111.7
2018-Aug-06 23:00N 37°25' E 123°22'1711.7
2018-Aug-06 21:36N 37°10' E 123°31'311.9
2018-Aug-06 21:21N 37°08' E 123°32'511.9
2018-Aug-06 20:56N 37°03' E 123°35'1312.1
2018-Aug-06 19:54N 36°52' E 123°42'512.0
2018-Aug-06 19:29N 36°48' E 123°44'612.1
2018-Aug-06 19:00N 36°42' E 123°47'2012.1
2018-Aug-06 17:20N 36°24' E 123°58'  
Track history (hours):
 
Tides and Currents Weather Stations Pressure Air Temp Water Temp Dewpoint Dewpoint Depression Visibility Wind Speed Wind Dir Waves Ship Positions

Mercury

Operator: Royal Caribbean Cruises Ltd

Last reported at 2018-Aug-15 10:49 UTC. Time now 2018-Aug-15 12:36 UTC.
Position N 31°05' E 122°31'.

Length 199 m; draft 8.8 m.

Type: Cargo ship. MMSI: 371862000.

Date/timePositionNaut miles runAvg speedWind from/ knotsBaromVisibWave heightAir tempDewpointWater temp
2018-Aug-15 10:49N 31°05' E 122°31'410.5
2018-Aug-15 10:28N 31°06' E 122°26'610.7
2018-Aug-15 09:52N 31°06' E 122°19'614.4
2018-Aug-15 09:27N 31°09' E 122°13'715.0
2018-Aug-15 09:00N 31°13' E 122°07'713.8
2018-Aug-15 08:30N 31°15' E 121°59'712.3
2018-Aug-15 07:58N 31°16' E 121°51'612.5
2018-Aug-15 07:30N 31°18' E 121°45'4 0.3
2018-Aug-14 18:26N 31°20' E 121°41'4 8.6
2018-Aug-14 18:00N 31°19' E 121°45'511.0
2018-Aug-14 17:30N 31°16' E 121°51'510.9
2018-Aug-14 17:00N 31°15' E 121°57'612.7
2018-Aug-14 16:30N 31°14' E 122°04'610.1
2018-Aug-14 15:56N 31°11' E 122°10'410.4
2018-Aug-14 15:30N 31°09' E 122°14'611.5
2018-Aug-14 14:58N 31°06' E 122°21'510.8
2018-Aug-14 14:28N 31°07' E 122°27'5 7.0
2018-Aug-14 13:41N 31°07' E 122°34'1 4.7
2018-Aug-14 13:29N 31°07' E 122°35'  
2018-Aug-11 04:10N 31°18' E 124°01'4014.1
2018-Aug-11 01:19N 31°13' E 123°14'17 1.9
2018-Aug-10 16:02N 31°12' E 122°54'0 4.8
2018-Aug-10 16:00N 31°12' E 122°54'0 0.7
2018-Aug-10 15:28N 31°11' E 122°54'1413.1
2018-Aug-10 14:25N 31°24' E 123°01'613.1
2018-Aug-10 14:00N 31°28' E 123°05'44112.5
2018-Aug-09 02:49N 38°34' E 120°47'2312.2
2018-Aug-09 00:57N 38°37' E 120°18'712.4
2018-Aug-09 00:22N 38°37' E 120°09'612.8
2018-Aug-08 23:56N 38°38' E 120°01'913.3
2018-Aug-08 23:15N 38°39' E 119°50'313.5
2018-Aug-08 23:00N 38°39' E 119°46'713.8
2018-Aug-08 22:30N 38°40' E 119°37'714.1
2018-Aug-08 21:59N 38°41' E 119°28'714.1
2018-Aug-08 21:30N 38°42' E 119°19'814.6
2018-Aug-08 20:56N 38°44' E 119°09'614.9
2018-Aug-08 20:30N 38°45' E 119°01'815.1
2018-Aug-08 20:00N 38°46' E 118°51'815.1
2018-Aug-08 19:29N 38°47' E 118°41'715.1
2018-Aug-08 19:00N 38°48' E 118°32'815.3
2018-Aug-08 18:30N 38°49' E 118°22'815.0
2018-Aug-08 18:00N 38°51' E 118°13'56 2.3
2018-Aug-07 18:00N 38°45' E 119°23'10 9.6
2018-Aug-07 16:55N 38°43' E 119°37'2410.8
2018-Aug-07 14:42N 38°39' E 120°07'211.9
2018-Aug-07 14:30N 38°39' E 120°10'6911.3
2018-Aug-07 08:27N 38°23' E 121°35'511.7
2018-Aug-07 08:00N 38°21' E 121°42'611.6
2018-Aug-07 07:30N 38°20' E 121°49'611.8
2018-Aug-07 06:59N 38°18' E 121°56'611.8
2018-Aug-07 06:30N 38°16' E 122°03'611.9
2018-Aug-07 06:00N 38°14' E 122°10'611.9
2018-Aug-07 05:28N 38°13' E 122°18'611.9
2018-Aug-07 04:57N 38°11' E 122°25'4411.7
2018-Aug-07 01:09N 37°46' E 123°12'0 2.7
2018-Aug-07 00:59N 37°46' E 123°12'2010.9
2018-Aug-06 23:06N 37°26' E 123°21'111.7
2018-Aug-06 23:00N 37°25' E 123°22'1711.7
2018-Aug-06 21:36N 37°10' E 123°31'311.9
2018-Aug-06 21:21N 37°08' E 123°32'511.9
2018-Aug-06 20:56N 37°03' E 123°35'1312.1
2018-Aug-06 19:54N 36°52' E 123°42'512.0
2018-Aug-06 19:29N 36°48' E 123°44'612.1
2018-Aug-06 19:00N 36°42' E 123°47'2012.1
2018-Aug-06 17:20N 36°24' E 123°58'  

Dump ship's entire track history